メインページ
METAR-TAF:

METAR-TAF

空港 :

Rouyn-Noranda, ケベック州, カナダ

緯度: 48-12N, 経度: 078-50W, 海抜: 301m

現時点の気象観測

当レポートは59分前の18:00(UTC)に作成
西/南西の風 18kt、最大24ktの突風を伴う
気温 29°C
湿度 55%
気圧 1003 hPa
視程: 24.1km
高度4000ftの雲は散在している

METAR: CYUY 191800Z 24018G24KT 15SM SCT040 29/19 A2961 RMK CU4 SLP025 DENSITY ALT 3200FT

時間: 14:59 (18:59 UTC)

予報

当レポートは1時間8分前の17:51(UTC)に作成
予報は19日の 18時(UTC)から 20日の 06時(UTC)まで有効
の風 15kt、最大25ktの突風を伴う
視程: 10km
高度5000ftの雲は散在している
19日の 18時(UTC)から 19日の 23時(UTC)まで一時的に
視程: 10km
高度4000ftの千切れ雲あり
弱いにわか雨
確率 30%
19日の 18時(UTC)から 19日の 23時(UTC)まで
変向風 20kt、最大30ktの突風を伴う
視程: 3.2km
高度4000ftの千切れ雲あり, 積乱雲.
激しい雷雨, 雨, 靄
19日の 2300時(UTC)から
西/北西の風 12kt、最大22ktの突風を伴う
視程: 10km
高度4000ftの雲は散在している
確率 30%
19日の 23時(UTC)から 20日の 01時(UTC)まで
変向風 20kt、最大30ktの突風を伴う
視程: 3.2km
高度4000ftの千切れ雲あり, 積乱雲.
激しい雷雨, 雨
20日の 0300時(UTC)から
西の風 8kt
視程: 10km
高度5000ftの雲はほとんどない

TAF: CYUY 191751Z 1918/2006 17015G25KT P6SM SCT050 TEMPO 1918/1923 P6SM -SHRA BKN040 PROB30 1918/1923 VRB20G30KT 2SM TSRA BR BKN040CB FM192300 29012G22KT P6SM SCT040 PROB30 1923/2001 VRB20G30KT 2SM TSRA BKN040CB FM200300 27008KT P6SM FEW050 RMK NXT FCST BY 200000Z

4,000以上の空港の気象観測と天気予報(METAR報とTAF報)

利用可能な観測所は地図上に黄色い丸と赤い丸で示す。

丸の上にカーソルを重ねると観測所名を参照できる。

次にクリックすると気象観測と天気予報を参照できる。

マップの切り替え:黒色「×」印の緑ボタンをクリックして拡大、「-」印の緑ボタンをクリックして縮小、緑色の三角印をクリックして隣りの地図に切り替え


METAR-TAF: